createdAt,value
2023-01-02T00:00:20.918Z,8.94
2023-01-02T00:05:32.851Z,8.93
2023-01-02T00:10:37.158Z,8.96
2023-01-02T00:15:39.385Z,9.00
2023-01-02T00:20:41.192Z,9.01
2023-01-02T00:25:47.099Z,9.02
2023-01-02T00:30:51.122Z,9.03
2023-01-02T00:35:55.326Z,9.03
2023-01-02T00:40:59.345Z,9.03
2023-01-02T00:46:03.648Z,9.02
2023-01-02T00:51:10.776Z,9.00
2023-01-02T00:56:12.534Z,8.98
2023-01-02T01:01:18.423Z,8.96
2023-01-02T01:06:27.037Z,8.95
2023-01-02T01:11:31.654Z,8.93
2023-01-02T01:16:35.688Z,8.90
2023-01-02T01:21:41.392Z,8.88
2023-01-02T01:26:47.243Z,8.85
2023-01-02T01:31:53.086Z,8.83
2023-01-02T01:36:54.803Z,8.83
2023-01-02T01:41:59.515Z,8.83
2023-01-02T01:47:01.847Z,8.83
2023-01-02T01:52:15.256Z,8.81
2023-01-02T01:57:26.659Z,8.82
2023-01-02T02:02:30.073Z,8.85
2023-01-02T02:07:40.462Z,8.89
2023-01-02T02:12:48.771Z,8.92
2023-01-02T02:18:06.754Z,8.95
2023-01-02T02:23:49.534Z,8.99
2023-01-02T02:29:16.819Z,9.18
2023-01-02T02:34:24.696Z,9.12
2023-01-02T02:39:35.359Z,9.10
2023-01-02T02:44:49.797Z,9.10
2023-01-02T02:50:00.745Z,9.12
2023-01-02T02:55:10.274Z,9.16
2023-01-02T03:00:17.200Z,9.17
2023-01-02T03:05:41.187Z,9.23
2023-01-02T03:10:47.272Z,9.30
2023-01-02T03:15:48.955Z,9.38
2023-01-02T03:21:03.500Z,9.47
2023-01-02T03:26:07.403Z,9.57
2023-01-02T03:31:21.667Z,9.66
2023-01-02T03:36:25.072Z,9.76
2023-01-02T03:41:37.126Z,9.78
2023-01-02T03:46:55.531Z,9.85
2023-01-02T03:51:57.307Z,9.93
2023-01-02T03:57:00.302Z,9.97
2023-01-02T04:02:14.829Z,10.02
2023-01-02T04:07:23.517Z,10.04
2023-01-02T04:12:29.617Z,10.10
2023-01-02T04:17:40.028Z,10.12
2023-01-02T04:22:53.409Z,10.17
2023-01-02T04:27:58.730Z,10.22
2023-01-02T04:33:05.140Z,10.23
2023-01-02T04:38:11.636Z,10.27
2023-01-02T04:43:19.727Z,10.28
2023-01-02T04:48:23.718Z,10.31
2023-01-02T04:53:25.423Z,10.37
2023-01-02T04:58:28.171Z,10.42
2023-01-02T05:03:32.519Z,10.42
2023-01-02T05:08:38.259Z,10.41
2023-01-02T05:13:40.348Z,10.40
2023-01-02T05:18:42.054Z,10.40
2023-01-02T05:23:52.480Z,10.41
2023-01-02T05:28:57.540Z,10.42
2023-01-02T05:34:02.887Z,10.42
2023-01-02T05:39:08.989Z,10.42
2023-01-02T05:44:19.152Z,10.43
2023-01-02T05:49:23.337Z,10.42
2023-01-02T05:54:25.061Z,10.45
2023-01-02T05:59:31.072Z,10.47
2023-01-02T06:04:35.156Z,10.50
2023-01-02T06:09:41.236Z,10.52
2023-01-02T06:14:45.722Z,10.56
2023-01-02T06:19:53.941Z,10.60
2023-01-02T06:24:58.322Z,10.66
2023-01-02T06:30:02.872Z,10.69
2023-01-02T06:35:05.062Z,10.69
2023-01-02T06:40:09.521Z,10.72
2023-01-02T06:45:16.576Z,10.74
2023-01-02T06:50:24.811Z,10.86
2023-01-02T06:55:28.085Z,10.97
2023-01-02T07:00:33.332Z,11.04
2023-01-02T07:05:35.552Z,11.07
2023-01-02T07:10:41.759Z,11.09
2023-01-02T07:15:43.445Z,11.10
2023-01-02T07:20:54.017Z,11.09
2023-01-02T07:26:01.090Z,11.07
2023-01-02T07:31:07.362Z,11.02
2023-01-02T07:36:12.728Z,10.99
2023-01-02T07:41:16.366Z,10.98
2023-01-02T07:46:19.958Z,10.99
2023-01-02T07:51:27.637Z,11.02
2023-01-02T07:56:35.119Z,11.03
2023-01-02T08:01:38.439Z,11.02
2023-01-02T08:06:43.464Z,11.01
2023-01-02T08:11:47.295Z,11.00
2023-01-02T08:16:52.264Z,10.99
2023-01-02T08:22:00.129Z,10.94
2023-01-02T08:27:02.061Z,10.91
2023-01-02T08:32:04.168Z,10.79
2023-01-02T08:37:10.731Z,10.66
2023-01-02T08:42:13.774Z,10.60
2023-01-02T08:47:15.921Z,10.54
2023-01-02T08:52:17.697Z,10.49
2023-01-02T08:57:21.673Z,10.45
2023-01-02T09:02:26.199Z,10.39
2023-01-02T09:07:32.418Z,10.33
2023-01-02T09:12:36.661Z,9.92
2023-01-02T09:17:38.524Z,9.61
2023-01-02T09:22:49.009Z,9.37
2023-01-02T09:27:51.674Z,9.21
2023-01-02T09:32:54.487Z,9.04
2023-01-02T09:37:56.256Z,8.75
2023-01-02T09:42:58.690Z,8.49
2023-01-02T09:48:00.539Z,8.45
2023-01-02T09:53:04.190Z,8.32
2023-01-02T09:58:21.951Z,8.24
2023-01-02T10:03:28.559Z,8.11
2023-01-02T10:09:01.769Z,8.10
2023-01-02T10:14:18.538Z,8.07
2023-01-02T10:19:23.128Z,7.92
2023-01-02T10:24:52.917Z,7.92
2023-01-02T10:30:15.142Z,8.01
2023-01-02T10:35:23.292Z,7.96
2023-01-02T10:40:33.216Z,7.99
2023-01-02T10:45:38.486Z,7.90
2023-01-02T10:50:42.681Z,7.90
2023-01-02T10:55:46.968Z,7.89
2023-01-02T11:01:14.119Z,7.99
2023-01-02T11:06:27.556Z,7.92
2023-01-02T11:11:32.716Z,7.93
2023-01-02T11:16:44.865Z,8.02
2023-01-02T11:21:54.593Z,8.04
2023-01-02T11:27:01.659Z,8.10
2023-01-02T11:32:06.554Z,7.93
2023-01-02T11:37:13.898Z,7.91
2023-01-02T11:42:44.678Z,7.95
2023-01-02T11:47:52.805Z,8.00
2023-01-02T11:52:57.964Z,8.07
2023-01-02T11:58:13.266Z,8.07
2023-01-02T12:03:21.410Z,8.10
2023-01-02T12:08:50.918Z,8.03
2023-01-02T12:14:07.781Z,7.95
2023-01-02T12:19:31.285Z,7.96
2023-01-02T12:24:55.484Z,7.93
2023-01-02T12:30:04.510Z,7.91
2023-01-02T12:35:34.297Z,7.85
2023-01-02T12:40:51.943Z,7.89
2023-01-02T12:46:08.259Z,7.88
2023-01-02T12:51:42.108Z,7.89
2023-01-02T12:56:59.193Z,7.94
2023-01-02T13:02:22.170Z,7.97
2023-01-02T13:07:34.831Z,8.14
2023-01-02T13:12:38.716Z,8.41
2023-01-02T13:17:57.395Z,8.39
2023-01-02T13:23:24.134Z,8.26
2023-01-02T13:28:28.125Z,8.21
2023-01-02T13:33:29.744Z,8.25
2023-01-02T13:38:37.671Z,8.16
2023-01-02T13:43:41.840Z,8.07
2023-01-02T13:48:47.183Z,8.04
2023-01-02T13:53:51.101Z,8.03
2023-01-02T13:59:01.672Z,8.02
2023-01-02T14:04:12.863Z,8.02
2023-01-02T14:09:21.834Z,8.03
2023-01-02T14:14:26.682Z,8.02
2023-01-02T14:19:31.101Z,8.00
2023-01-02T14:24:39.543Z,7.99
2023-01-02T14:29:58.914Z,7.99
2023-01-02T14:35:05.511Z,7.97
2023-01-02T14:40:14.175Z,8.07
2023-01-02T14:45:20.912Z,8.05
2023-01-02T14:50:25.562Z,8.04
2023-01-02T14:55:41.373Z,8.02
2023-01-02T15:00:47.736Z,8.00
2023-01-02T15:05:54.978Z,8.02
2023-01-02T15:11:18.154Z,8.00
2023-01-02T15:16:24.021Z,7.85
2023-01-02T15:21:29.617Z,7.72
2023-01-02T15:26:35.863Z,7.59
2023-01-02T15:31:39.282Z,7.53
2023-01-02T15:36:44.158Z,7.63
2023-01-02T15:41:50.969Z,7.70
2023-01-02T15:46:52.809Z,7.71
2023-01-02T15:51:57.455Z,7.67
2023-01-02T15:57:10.091Z,7.63
2023-01-02T16:02:37.268Z,7.61
2023-01-02T16:07:43.377Z,7.63
2023-01-02T16:12:52.675Z,7.64
2023-01-02T16:17:55.656Z,7.63
2023-01-02T16:23:03.909Z,7.59
2023-01-02T16:28:33.952Z,7.52
2023-01-02T16:33:34.360Z,7.57
2023-01-02T16:38:55.985Z,7.60
2023-01-02T16:43:57.731Z,7.58
2023-01-02T16:49:05.387Z,7.59
2023-01-02T16:54:07.386Z,7.59
2023-01-02T16:59:12.053Z,7.78
2023-01-02T17:04:16.662Z,7.87
2023-01-02T17:09:18.514Z,7.86
2023-01-02T17:14:21.468Z,7.67
2023-01-02T17:19:28.811Z,7.59
2023-01-02T17:24:32.798Z,7.47
2023-01-02T17:29:39.800Z,7.36
2023-01-02T17:34:41.540Z,7.28
2023-01-02T17:39:48.551Z,7.26
2023-01-02T17:44:55.567Z,7.19
2023-01-02T17:50:02.343Z,7.22
2023-01-02T17:55:08.522Z,7.10
2023-01-02T18:00:14.830Z,6.90
2023-01-02T18:05:21.319Z,6.88
2023-01-02T18:10:32.666Z,6.74
2023-01-02T18:15:37.119Z,6.63
2023-01-02T18:20:41.686Z,6.50
2023-01-02T18:25:45.199Z,6.43
2023-01-02T18:30:47.486Z,6.30
2023-01-02T18:36:01.137Z,6.31
2023-01-02T18:41:25.023Z,6.36
2023-01-02T18:47:03.926Z,6.36
2023-01-02T18:52:11.333Z,6.27
2023-01-02T18:57:22.170Z,6.18
2023-01-02T19:02:31.142Z,5.97
2023-01-02T19:07:35.124Z,5.81
2023-01-02T19:13:08.107Z,5.65
2023-01-02T19:18:13.982Z,5.57
2023-01-02T19:23:24.849Z,5.49
2023-01-02T19:28:29.875Z,5.45
2023-01-02T19:33:42.620Z,5.37
2023-01-02T19:38:49.679Z,5.34
2023-01-02T19:43:51.449Z,5.26
2023-01-02T19:48:53.185Z,5.23
2023-01-02T19:53:58.783Z,5.09
2023-01-02T19:59:08.315Z,5.03
2023-01-02T20:04:14.477Z,4.97
2023-01-02T20:09:25.824Z,5.07
2023-01-02T20:14:27.539Z,5.02
2023-01-02T20:19:32.303Z,5.01
2023-01-02T20:24:35.257Z,4.93
2023-01-02T20:29:39.204Z,4.99
2023-01-02T20:34:41.301Z,5.03
2023-01-02T20:39:44.889Z,4.89
2023-01-02T20:44:47.607Z,4.73
2023-01-02T20:49:51.590Z,4.58
2023-01-02T20:54:58.315Z,4.38
2023-01-02T21:00:00.336Z,4.30
2023-01-02T21:05:03.249Z,4.32
2023-01-02T21:10:07.847Z,4.24
2023-01-02T21:15:32.380Z,4.07
2023-01-02T21:20:41.151Z,4.01
2023-01-02T21:25:46.572Z,3.92
2023-01-02T21:30:54.120Z,3.81
2023-01-02T21:36:00.302Z,3.82
2023-01-02T21:41:25.402Z,3.74
2023-01-02T21:46:29.857Z,3.64
2023-01-02T21:51:34.268Z,3.64
2023-01-02T21:56:38.740Z,3.59
2023-01-02T22:01:41.735Z,3.56
2023-01-02T22:07:29.389Z,3.49
2023-01-02T22:12:07.776Z,3.47
2023-01-02T22:17:11.715Z,3.43
2023-01-02T22:22:15.977Z,3.48
2023-01-02T22:27:19.179Z,3.54
2023-01-02T22:32:26.048Z,3.54
2023-01-02T22:37:27.764Z,3.64
2023-01-02T22:43:00.203Z,3.69
2023-01-02T22:48:06.397Z,3.76
2023-01-02T22:53:18.382Z,3.92
2023-01-02T22:58:28.455Z,4.06
2023-01-02T23:03:39.486Z,4.19
2023-01-02T23:08:43.013Z,4.31
2023-01-02T23:13:52.940Z,4.41
2023-01-02T23:19:16.118Z,4.50
2023-01-02T23:24:27.756Z,4.58
2023-01-02T23:29:30.225Z,4.64
2023-01-02T23:34:36.607Z,4.71
2023-01-02T23:39:38.329Z,4.70
2023-01-02T23:44:41.071Z,4.66
2023-01-02T23:49:42.841Z,4.54
2023-01-02T23:54:52.489Z,4.44
2023-01-02T23:59:56.636Z,4.41
